Time;durP1;ratioP1;P1;durP2;ratioP2;P2;SDS_P1;SDS_P2;PMS_P1;PMS_P2;Temp;Humidity;BMP_temperature;BMP_pressure;BME280_temperature;BME280_humidity;BME280_pressure;Samples;Min_cycle;Max_cycle;Signal;HPM_P1;HPM_P2
2022/09/21 00:01:19;;;;;;;1.23;1.13;;;9.20;99.90;;;;;;5057072;28;20636;-89
2022/09/21 00:03:45;;;;;;;1.60;1.47;;;9.10;99.90;;;;;;5074707;28;20515;-88
2022/09/21 00:06:17;;;;;;;1.47;1.30;;;9.10;99.90;;;;;;5074564;28;20171;-89
2022/09/21 00:08:44;;;;;;;1.70;1.57;;;9.20;99.90;;;;;;5074737;28;20175;-89
2022/09/21 00:11:15;;;;;;;0.83;0.83;;;9.60;99.90;;;;;;5076447;28;20171;-88
2022/09/21 00:13:44;;;;;;;1.50;1.13;;;9.10;99.90;;;;;;5078464;28;20174;-89
2022/09/21 00:16:10;;;;;;;2.57;2.03;;;9.10;99.90;;;;;;5070826;28;20183;-90
2022/09/21 00:18:36;;;;;;;3.40;1.93;;;9.10;99.90;;;;;;5069373;28;20179;-90
2022/09/21 00:21:07;;;;;;;5.00;2.40;;;9.20;99.90;;;;;;5052192;28;20175;-90
2022/09/21 00:23:34;;;;;;;2.67;2.47;;;9.20;99.90;;;;;;5086135;28;20175;-89
2022/09/21 00:26:18;;;;;;;3.03;2.70;;;9.20;99.90;;;;;;5079952;28;20182;-89
2022/09/21 00:28:44;;;;;;;4.90;2.73;;;9.20;99.90;;;;;;5081283;28;20282;-89
2022/09/21 00:31:13;;;;;;;3.97;3.00;;;9.20;99.90;;;;;;5098771;28;20193;-89
2022/09/21 00:33:40;;;;;;;3.30;3.00;;;9.20;99.90;;;;;;5099198;28;20182;-89
2022/09/21 00:36:08;;;;;;;2.93;2.50;;;9.80;99.90;;;;;;5099194;28;20156;-89
2022/09/21 00:38:35;;;;;;;4.80;3.20;;;9.20;99.90;;;;;;5099045;28;20166;-87
2022/09/21 00:41:01;;;;;;;3.70;2.87;;;9.30;99.90;;;;;;5081969;28;20195;-89
2022/09/21 00:43:27;;;;;;;5.43;3.57;;;9.30;99.90;;;;;;5081844;28;20175;-87
2022/09/21 00:46:09;;;;;;;4.47;3.23;;;10.10;99.90;;;;;;5098919;28;20182;-89
2022/09/21 00:48:34;;;;;;;4.07;2.80;;;9.30;99.90;;;;;;5099216;28;20148;-88
2022/09/21 00:51:05;;;;;;;5.53;3.77;;;9.30;99.90;;;;;;5098774;28;20206;-88
2022/09/21 00:53:31;;;;;;;3.43;3.10;;;9.30;99.90;;;;;;5080996;28;20159;-87
2022/09/21 00:55:58;;;;;;;4.93;3.67;;;10.20;99.90;;;;;;5098537;28;20163;-89
2022/09/21 00:58:37;;;;;;;5.13;4.10;;;9.30;99.90;;;;;;5098549;28;20170;-89
2022/09/21 01:01:03;;;;;;;6.50;5.23;;;9.30;99.90;;;;;;5079950;28;20178;-90
2022/09/21 01:03:30;;;;;;;3.97;3.57;;;9.30;99.90;;;;;;5077236;28;20179;-90
2022/09/21 01:05:56;;;;;;;3.87;2.90;;;9.40;99.90;;;;;;5077718;28;20270;-91
2022/09/21 01:08:24;;;;;;;5.20;4.60;;;9.30;99.90;;;;;;5082581;28;20608;-90
2022/09/21 01:11:16;;;;;;;4.37;3.60;;;9.30;99.90;;;;;;5052179;28;20207;-90
2022/09/21 01:14:00;;;;;;;4.20;3.37;;;9.30;99.90;;;;;;5068188;28;20171;-90
2022/09/21 01:16:41;;;;;;;4.00;3.37;;;9.40;99.90;;;;;;5090128;28;20175;-90
2022/09/21 01:19:13;;;;;;;3.43;2.73;;;9.40;99.90;;;;;;5065905;28;20190;-89
2022/09/21 01:21:59;;;;;;;4.97;2.77;;;9.30;99.90;;;;;;5057729;28;20615;-90
2022/09/21 01:24:47;;;;;;;2.90;2.60;;;9.30;99.90;;;;;;5073806;28;20193;-91
2022/09/21 01:27:27;;;;;;;3.03;2.23;;;9.30;99.90;;;;;;5063169;28;20194;-90
2022/09/21 01:30:07;;;;;;;4.43;2.97;;;9.30;99.90;;;;;;5068511;28;20613;-90
2022/09/21 01:32:45;;;;;;;5.60;4.10;;;9.30;99.90;;;;;;5079609;28;20177;-87
2022/09/21 01:35:29;;;;;;;4.27;3.07;;;9.30;99.90;;;;;;5078028;28;20201;-90
2022/09/21 01:38:06;;;;;;;3.97;2.60;;;9.30;99.90;;;;;;5075088;28;20670;-91
2022/09/21 01:40:42;;;;;;;3.50;2.67;;;9.20;99.90;;;;;;5073434;28;20179;-91
2022/09/21 01:43:13;;;;;;;3.40;3.03;;;9.20;99.90;;;;;;5055635;28;20643;-91
2022/09/21 01:45:44;;;;;;;3.17;2.87;;;9.30;99.90;;;;;;5073101;28;20171;-91
2022/09/21 01:48:12;;;;;;;5.13;3.47;;;9.80;99.90;;;;;;5073427;28;20174;-91
2022/09/21 01:50:43;;;;;;;3.13;2.47;;;10.00;99.90;;;;;;5072702;28;20282;-92
2022/09/21 01:53:24;;;;;;;3.03;2.70;;;9.20;99.90;;;;;;5073393;28;20236;-90
2022/09/21 01:56:21;;;;;;;2.97;2.70;;;9.20;99.90;;;;;;5054990;28;20269;-90
2022/09/21 01:59:15;;;;;;;4.27;2.97;;;9.10;99.90;;;;;;5050902;28;20639;-90
2022/09/21 02:01:48;;;;;;;2.03;1.87;;;9.20;99.90;;;;;;5073048;28;20201;-90
2022/09/21 02:04:13;;;;;;;2.43;2.10;;;9.10;99.90;;;;;;5055308;28;20201;-89
2022/09/21 02:06:43;;;;;;;2.80;2.57;;;9.10;99.90;;;;;;5072471;28;20679;-89
2022/09/21 02:09:10;;;;;;;6.10;3.73;;;9.20;99.90;;;;;;5072790;28;20755;-90
2022/09/21 02:11:41;;;;;;;2.53;2.27;;;9.10;99.90;;;;;;5048494;28;20186;-90
2022/09/21 02:14:09;;;;;;;2.27;2.07;;;9.20;99.90;;;;;;5028099;28;20176;-89
2022/09/21 02:16:58;;;;;;;2.13;1.83;;;9.10;99.90;;;;;;5044202;28;20186;-90
2022/09/21 02:19:26;;;;;;;4.13;2.77;;;9.10;99.90;;;;;;5040163;28;20183;-90
2022/09/21 02:22:08;;;;;;;5.80;3.13;;;9.10;99.90;;;;;;5062282;28;20180;-90
2022/09/21 02:24:40;;;;;;;2.97;2.50;;;9.60;99.90;;;;;;5060108;28;20176;-91
2022/09/21 02:27:17;;;;;;;4.50;3.00;;;9.20;99.90;;;;;;5063428;28;20175;-90
2022/09/21 02:29:56;;;;;;;3.57;3.20;;;9.20;99.90;;;;;;5066355;28;20234;-89
2022/09/21 02:32:49;;;;;;;9.37;2.27;;;9.10;99.90;;;;;;5067883;28;20176;-91
2022/09/21 02:35:42;;;;;;;2.83;2.60;;;9.10;99.90;;;;;;5045096;28;20228;-90
2022/09/21 02:38:10;;;;;;;4.77;3.67;;;9.10;99.90;;;;;;5045964;28;20635;-91
2022/09/21 02:40:42;;;;;;;2.33;1.90;;;9.20;99.90;;;;;;5062518;28;20179;-91
2022/09/21 02:43:16;;;;;;;4.57;3.07;;;9.10;99.90;;;;;;5053264;28;20232;-91
2022/09/21 02:45:46;;;;;;;3.20;2.60;;;10.20;99.90;;;;;;5059804;28;20226;-87
2022/09/21 02:48:52;;;;;;;3.43;2.77;;;10.30;99.90;;;;;;5062172;28;20179;-91
2022/09/21 02:51:29;;;;;;;3.07;1.90;;;9.50;99.90;;;;;;5061703;28;20202;-91
2022/09/21 02:53:58;;;;;;;2.57;2.00;;;9.90;99.90;;;;;;5037498;28;20262;-91
2022/09/21 02:56:25;;;;;;;2.27;2.13;;;9.10;99.90;;;;;;5056758;28;20180;-91
2022/09/21 02:58:53;;;;;;;3.83;3.53;;;9.10;99.90;;;;;;5038443;28;20216;-90
2022/09/21 03:01:20;;;;;;;2.77;2.43;;;9.50;99.90;;;;;;5055960;28;20184;-91
2022/09/21 03:03:47;;;;;;;3.27;2.77;;;9.10;99.90;;;;;;5055673;28;20180;-90
2022/09/21 03:06:12;;;;;;;2.03;1.93;;;9.10;99.90;;;;;;5038864;28;20278;-90
2022/09/21 03:08:38;;;;;;;3.47;2.87;;;9.10;99.90;;;;;;5038771;28;20310;-90
2022/09/21 03:11:04;;;;;;;2.63;2.43;;;9.10;99.90;;;;;;5055884;28;20318;-91
2022/09/21 03:13:30;;;;;;;4.57;2.97;;;9.10;99.90;;;;;;5038229;28;20201;-89
2022/09/21 03:16:01;;;;;;;6.33;1.93;;;9.00;99.90;;;;;;5055602;28;20257;-91
2022/09/21 03:18:27;;;;;;;3.63;2.03;;;9.00;99.90;;;;;;5062107;28;20250;-90
2022/09/21 03:20:53;;;;;;;2.53;2.33;;;9.00;99.90;;;;;;5058623;28;20237;-90
2022/09/21 03:23:18;;;;;;;3.47;2.10;;;9.00;99.90;;;;;;5056000;28;20645;-88
2022/09/21 03:25:45;;;;;;;3.20;2.63;;;9.40;99.90;;;;;;5037553;28;20184;-89
2022/09/21 03:28:12;;;;;;;3.20;2.70;;;9.40;99.90;;;;;;5020330;28;20257;-88
2022/09/21 03:30:38;;;;;;;3.10;2.80;;;9.30;99.90;;;;;;5055281;28;20211;-89
2022/09/21 03:33:05;;;;;;;2.97;2.73;;;8.90;99.90;;;;;;5058780;28;20183;-90
2022/09/21 03:35:32;;;;;;;2.57;2.40;;;9.10;99.90;;;;;;5079490;28;20187;-90
2022/09/21 03:37:58;;;;;;;2.20;2.00;;;8.90;99.90;;;;;;5054251;28;20593;-91
2022/09/21 03:40:25;;;;;;;2.57;2.37;;;8.90;99.90;;;;;;5050979;28;20186;-91
2022/09/21 03:42:50;;;;;;;3.03;2.33;;;10.10;99.90;;;;;;5076167;28;20183;-90
2022/09/21 03:45:16;;;;;;;2.43;2.23;;;8.90;99.90;;;;;;5073726;28;20277;-92
2022/09/21 03:47:42;;;;;;;3.40;2.60;;;8.90;99.90;;;;;;5056334;28;20278;-93
2022/09/21 03:50:08;;;;;;;4.50;3.17;;;9.70;99.90;;;;;;5076748;28;20219;-92
2022/09/21 03:52:36;;;;;;;3.03;2.73;;;8.90;99.90;;;;;;5061497;28;20324;-94
2022/09/21 03:55:05;;;;;;;3.00;2.80;;;9.00;99.90;;;;;;5073958;28;20198;-94
2022/09/21 03:57:31;;;;;;;2.10;1.90;;;9.00;99.90;;;;;;5074221;28;21661;-94
2022/09/21 03:59:57;;;;;;;3.10;1.90;;;9.40;99.90;;;;;;5073990;28;20187;-95
2022/09/21 04:02:22;;;;;;;3.93;2.50;;;9.60;99.90;;;;;;5054328;28;20667;-93
2022/09/21 04:04:48;;;;;;;2.70;2.33;;;9.00;99.90;;;;;;5065383;28;20218;-95
2022/09/21 04:07:14;;;;;;;3.83;3.03;;;9.00;99.90;;;;;;5073325;28;20320;-94
2022/09/21 04:09:40;;;;;;;3.20;2.77;;;8.90;99.90;;;;;;5086284;28;20568;-95
2022/09/21 04:12:06;;;;;;;2.77;2.57;;;9.50;99.90;;;;;;5048031;28;20184;-96
2022/09/21 04:14:32;;;;;;;2.47;2.27;;;8.90;99.90;;;;;;5063655;28;20195;-94
2022/09/21 04:16:58;;;;;;;3.73;3.03;;;9.80;99.90;;;;;;5073616;28;20183;-94
2022/09/21 04:19:24;;;;;;;3.33;3.03;;;8.90;99.90;;;;;;5073378;28;20190;-95
2022/09/21 04:21:50;;;;;;;3.37;3.00;;;9.00;99.90;;;;;;5092560;28;20259;-95
2022/09/21 04:24:18;;;;;;;3.13;2.83;;;9.00;99.90;;;;;;5061058;28;20728;-91
2022/09/21 04:26:45;;;;;;;5.37;2.60;;;9.10;99.90;;;;;;5055898;28;20255;-92
2022/09/21 04:29:14;;;;;;;2.37;2.17;;;9.00;99.90;;;;;;5072633;28;20357;-94
2022/09/21 04:31:40;;;;;;;3.40;2.93;;;9.00;99.90;;;;;;5072065;28;20187;-92
2022/09/21 04:34:06;;;;;;;4.67;4.27;;;9.00;99.90;;;;;;5068683;28;20240;-91
2022/09/21 04:36:31;;;;;;;3.35;2.90;;;9.10;99.90;;;;;;5096487;28;20187;-93
2022/09/21 04:38:59;;;;;;;6.10;3.10;;;9.40;99.90;;;;;;5058427;28;20203;-93
2022/09/21 04:41:25;;;;;;;3.97;3.50;;;9.10;99.90;;;;;;5077414;28;20180;-92
2022/09/21 04:43:51;;;;;;;3.13;2.87;;;9.60;99.90;;;;;;5052575;28;20178;-94
2022/09/21 04:46:18;;;;;;;3.27;2.77;;;9.10;99.90;;;;;;5082960;28;20523;-93
2022/09/21 04:48:45;;;;;;;4.00;3.67;;;9.10;99.90;;;;;;5071492;28;20187;-90
2022/09/21 04:51:12;;;;;;;5.40;3.20;;;9.10;99.90;;;;;;5052982;28;20692;-90
2022/09/21 04:53:39;;;;;;;6.13;3.77;;;9.20;99.90;;;;;;5023970;28;20339;-89
2022/09/21 04:56:07;;;;;;;5.53;4.03;;;9.10;99.90;;;;;;5085170;28;20269;-89
2022/09/21 04:58:33;;;;;;;3.90;2.77;;;9.10;99.90;;;;;;5069130;28;20194;-89
2022/09/21 05:00:59;;;;;;;4.00;3.63;;;9.10;99.90;;;;;;5044087;28;20683;-90
2022/09/21 05:03:25;;;;;;;5.93;3.47;;;9.10;99.90;;;;;;5051898;28;20545;-90
2022/09/21 05:05:55;;;;;;;4.80;3.43;;;9.10;99.90;;;;;;5068434;28;20182;-91
2022/09/21 05:11:14;;;;;;;3.33;3.03;;;9.10;99.90;;;;;;5026207;28;20245;-87
2022/09/21 05:13:41;;;;;;;4.93;2.17;;;9.50;99.90;;;;;;5063221;28;20182;-87
2022/09/21 05:16:07;;;;;;;5.13;3.87;;;9.10;99.90;;;;;;5065500;28;20190;-87
2022/09/21 05:18:32;;;;;;;10.40;4.10;;;9.10;99.90;;;;;;5046256;28;20592;-89
2022/09/21 05:20:59;;;;;;;9.47;4.53;;;9.20;99.90;;;;;;5035791;28;20258;-88
2022/09/21 05:23:26;;;;;;;4.37;3.87;;;9.10;99.90;;;;;;5037124;28;20242;-88
2022/09/21 05:25:52;;;;;;;4.70;4.00;;;9.10;99.90;;;;;;5070974;28;20179;-89
2022/09/21 05:28:19;;;;;;;8.90;4.10;;;9.10;99.90;;;;;;5066219;28;20310;-89
2022/09/21 05:31:04;;;;;;;5.73;4.10;;;9.10;99.90;;;;;;5059458;28;20286;-89
2022/09/21 05:33:34;;;;;;;4.07;2.80;;;9.10;99.90;;;;;;5062202;28;20199;-88
2022/09/21 05:36:00;;;;;;;2.80;2.60;;;9.20;99.90;;;;;;5061264;28;20625;-86
2022/09/21 05:38:25;;;;;;;7.13;3.73;;;9.70;99.90;;;;;;5060747;28;20266;-88
2022/09/21 05:40:52;;;;;;;5.77;3.77;;;9.20;99.90;;;;;;5043166;28;20278;-88
2022/09/21 05:43:18;;;;;;;4.13;2.97;;;9.10;99.90;;;;;;5072224;28;20175;-89
2022/09/21 05:45:47;;;;;;;3.97;2.57;;;9.20;99.90;;;;;;5051585;28;20237;-88
2022/09/21 05:48:22;;;;;;;3.80;2.43;;;9.10;99.90;;;;;;5035404;28;20183;-88
2022/09/21 05:51:20;;;;;;;4.37;3.97;;;9.10;99.90;;;;;;5053251;28;20260;-88
2022/09/21 05:54:13;;;;;;;2.43;2.23;;;9.20;99.90;;;;;;5052744;28;20192;-88
2022/09/21 05:57:05;;;;;;;3.23;2.90;;;9.20;99.90;;;;;;5052487;28;20176;-89
2022/09/21 05:59:45;;;;;;;5.63;2.50;;;9.30;99.90;;;;;;5052715;28;20175;-88
2022/09/21 06:02:48;;;;;;;4.87;3.67;;;9.30;99.90;;;;;;5055091;28;20244;-89
2022/09/21 06:05:15;;;;;;;5.40;3.53;;;9.20;99.90;;;;;;5062928;28;20176;-88
2022/09/21 06:07:40;;;;;;;5.40;3.37;;;9.30;99.90;;;;;;5043910;28;20702;-88
2022/09/21 06:10:08;;;;;;;4.27;2.93;;;9.30;99.90;;;;;;5061670;28;20207;-87
2022/09/21 06:12:33;;;;;;;10.97;3.33;;;9.30;99.90;;;;;;5028472;28;20183;-89
2022/09/21 06:14:59;;;;;;;3.50;2.80;;;9.30;99.90;;;;;;5042715;28;20188;-88
2022/09/21 06:17:26;;;;;;;3.43;2.67;;;9.30;99.90;;;;;;5064652;28;20628;-89
2022/09/21 06:19:52;;;;;;;2.80;2.60;;;9.40;99.90;;;;;;5044694;28;20188;-87
2022/09/21 06:22:18;;;;;;;7.20;4.23;;;9.40;99.90;;;;;;5054420;28;20180;-90
2022/09/21 06:24:44;;;;;;;4.37;3.00;;;9.40;99.90;;;;;;5034283;28;20190;-88
2022/09/21 06:27:10;;;;;;;8.43;5.37;;;9.40;99.90;;;;;;5017669;28;20774;-88
2022/09/21 06:29:35;;;;;;;6.78;3.85;;;9.50;99.90;;;;;;5055566;28;20641;-89
2022/09/21 06:32:02;;;;;;;4.17;3.47;;;10.00;99.90;;;;;;5055469;28;20217;-90
2022/09/21 06:34:28;;;;;;;12.50;5.17;;;9.40;99.90;;;;;;5045678;28;20540;-88
2022/09/21 06:36:54;;;;;;;4.80;2.97;;;9.70;99.90;;;;;;5049365;28;20706;-89
2022/09/21 06:39:19;;;;;;;6.20;3.73;;;10.40;99.90;;;;;;5092600;28;20184;-88
2022/09/21 06:41:45;;;;;;;6.23;3.50;;;9.70;99.90;;;;;;5076663;28;20160;-91
2022/09/21 06:44:10;;;;;;;6.90;4.80;;;9.50;99.90;;;;;;5079118;28;20179;-86
2022/09/21 06:46:36;;;;;;;4.90;3.33;;;9.40;99.90;;;;;;5089114;28;20172;-86
2022/09/21 06:49:02;;;;;;;4.10;3.20;;;10.50;99.90;;;;;;5064537;28;20175;-91
2022/09/21 06:51:27;;;;;;;3.73;3.07;;;9.50;99.90;;;;;;5064103;28;20167;-89
2022/09/21 06:53:55;;;;;;;3.50;2.60;;;10.40;99.90;;;;;;5047645;28;20202;-89
2022/09/21 06:56:21;;;;;;;3.40;2.43;;;9.50;99.90;;;;;;5079829;28;20176;-89
2022/09/21 06:58:47;;;;;;;4.13;2.10;;;9.50;99.90;;;;;;5080379;28;20235;-88
2022/09/21 07:01:14;;;;;;;6.53;3.77;;;9.50;99.90;;;;;;5079223;28;20198;-85
2022/09/21 07:03:41;;;;;;;3.30;2.67;;;9.60;99.90;;;;;;5080720;28;20215;-88
2022/09/21 07:06:08;;;;;;;6.30;2.47;;;10.30;99.90;;;;;;5083223;28;20179;-88
2022/09/21 07:08:34;;;;;;;3.47;2.77;;;10.40;99.90;;;;;;5077607;28;20196;-90
2022/09/21 07:11:01;;;;;;;2.63;2.42;;;9.70;99.90;;;;;;5056908;28;20211;-90
2022/09/21 07:13:27;;;;;;;3.87;2.73;;;9.70;99.90;;;;;;5037875;28;20188;-90
2022/09/21 07:15:53;;;;;;;5.17;3.13;;;9.70;99.90;;;;;;5055094;28;20180;-88
2022/09/21 07:18:19;;;;;;;4.20;3.25;;;9.70;99.90;;;;;;5037610;28;20180;-89
2022/09/21 07:20:45;;;;;;;4.28;3.00;;;9.70;99.90;;;;;;5055560;28;20215;-90
2022/09/21 07:23:15;;;;;;;2.92;2.47;;;9.70;99.90;;;;;;5055396;28;20172;-88
2022/09/21 07:25:42;;;;;;;3.20;2.83;;;9.80;99.90;;;;;;5037441;28;20230;-89
2022/09/21 07:28:09;;;;;;;3.70;3.23;;;9.80;99.90;;;;;;5054740;28;20327;-89
2022/09/21 07:30:37;;;;;;;4.35;3.83;;;9.70;99.90;;;;;;5044289;28;20245;-88
2022/09/21 07:33:03;;;;;;;2.75;2.08;;;9.80;99.90;;;;;;5065043;28;20206;-89
2022/09/21 07:35:29;;;;;;;3.90;3.20;;;9.80;99.90;;;;;;5064551;28;20183;-89
2022/09/21 07:37:57;;;;;;;6.03;3.87;;;10.00;99.90;;;;;;5045704;28;20229;-89
2022/09/21 07:40:23;;;;;;;2.35;2.08;;;9.90;99.90;;;;;;5047228;28;20202;-89
2022/09/21 07:42:49;;;;;;;3.70;2.90;;;9.80;99.90;;;;;;5047266;28;20656;-90
2022/09/21 07:45:14;;;;;;;3.00;2.00;;;9.90;99.90;;;;;;5045324;28;20266;-89
2022/09/21 07:47:40;;;;;;;4.05;3.60;;;9.90;99.90;;;;;;5046062;28;20187;-88
2022/09/21 07:50:06;;;;;;;2.40;2.20;;;9.90;99.90;;;;;;5046621;28;20215;-89
2022/09/21 07:52:31;;;;;;;4.35;1.90;;;9.90;99.90;;;;;;5062469;28;20664;-87
2022/09/21 07:54:57;;;;;;;5.47;3.53;;;9.90;99.90;;;;;;5064339;28;20232;-86
2022/09/21 08:00:08;;;;;;;5.05;3.05;;;10.00;99.90;;;;;;5049382;28;20195;-89
2022/09/21 08:02:33;;;;;;;3.08;2.78;;;10.00;99.90;;;;;;5046440;28;20191;-90
2022/09/21 08:04:59;;;;;;;5.25;2.80;;;10.00;99.90;;;;;;5065061;28;20187;-87
2022/09/21 08:07:26;;;;;;;4.03;3.08;;;10.40;99.90;;;;;;5046727;28;20180;-89
2022/09/21 08:09:52;;;;;;;3.42;2.20;;;10.10;99.90;;;;;;5041017;28;20207;-89
2022/09/21 08:12:19;;;;;;;2.92;2.65;;;10.00;99.90;;;;;;5061042;28;20187;-90
2022/09/21 08:14:46;;;;;;;3.33;2.25;;;10.10;99.90;;;;;;5054308;28;20200;-90
2022/09/21 08:17:12;;;;;;;2.40;1.98;;;10.20;99.90;;;;;;5054455;28;20255;-90
2022/09/21 08:19:38;;;;;;;1.42;1.33;;;10.10;99.90;;;;;;5036428;28;20198;-91
2022/09/21 08:22:04;;;;;;;1.77;1.48;;;10.20;99.90;;;;;;5054176;28;20636;-90
2022/09/21 08:24:30;;;;;;;2.85;2.20;;;10.20;99.90;;;;;;5054110;28;20226;-89
2022/09/21 08:26:56;;;;;;;2.45;1.90;;;10.20;99.90;;;;;;5053349;28;20176;-89
2022/09/21 08:29:23;;;;;;;2.83;2.25;;;10.20;99.90;;;;;;5035453;28;20769;-89
2022/09/21 08:31:49;;;;;;;1.90;1.70;;;10.40;99.90;;;;;;5053113;28;20217;-88
2022/09/21 08:34:15;;;;;;;2.85;2.35;;;10.40;99.90;;;;;;5028462;28;20186;-89
2022/09/21 08:36:40;;;;;;;3.13;2.08;;;10.50;99.90;;;;;;5045687;28;20520;-89
2022/09/21 08:39:07;;;;;;;1.80;1.67;;;10.90;99.90;;;;;;5056250;28;20271;-91
2022/09/21 08:42:12;;;;;;;2.50;2.30;;;10.70;99.90;;;;;;5035244;28;20638;-89
2022/09/21 08:44:37;;;;;;;2.72;2.33;;;10.70;99.90;;;;;;5029854;28;20242;-91
2022/09/21 08:47:12;;;;;;;2.78;1.65;;;10.60;99.90;;;;;;5056841;28;20641;-90
2022/09/21 08:49:40;;;;;;;2.08;1.88;;;11.40;99.90;;;;;;5057685;28;20207;-89
2022/09/21 08:52:11;;;;;;;1.63;1.52;;;10.80;99.90;;;;;;5063973;28;20540;-92
2022/09/21 08:54:43;;;;;;;3.03;2.10;;;10.90;99.90;;;;;;5069770;28;20179;-90
2022/09/21 08:57:12;;;;;;;2.00;1.75;;;11.00;99.90;;;;;;5069977;28;20179;-90
2022/09/21 08:59:42;;;;;;;1.88;1.58;;;11.10;99.90;;;;;;5058158;28;20650;-90
2022/09/21 09:02:43;;;;;;;1.48;1.30;;;11.10;99.90;;;;;;5045876;28;20175;-90
2022/09/21 09:05:47;;;;;;;1.92;1.48;;;11.10;99.90;;;;;;5046625;28;20186;-89
2022/09/21 09:08:27;;;;;;;1.67;1.20;;;11.10;99.90;;;;;;5063372;28;20252;-91
2022/09/21 09:11:10;;;;;;;2.13;1.88;;;11.10;99.90;;;;;;5063395;28;20203;-89
2022/09/21 09:13:57;;;;;;;1.13;1.10;;;11.10;99.90;;;;;;5061667;28;20326;-89
2022/09/21 09:16:41;;;;;;;2.40;2.17;;;11.20;99.90;;;;;;5044480;28;20183;-88
2022/09/21 09:19:21;;;;;;;1.02;1.02;;;11.30;99.90;;;;;;5057696;28;20251;-90
2022/09/21 09:21:47;;;;;;;2.97;1.35;;;11.40;99.90;;;;;;5056459;28;20245;-89
2022/09/21 09:24:34;;;;;;;2.03;1.25;;;12.20;99.90;;;;;;5018678;28;20629;-89
2022/09/21 09:27:18;;;;;;;2.25;1.75;;;11.50;99.90;;;;;;5052541;28;20172;-89
2022/09/21 09:29:57;;;;;;;1.08;0.98;;;11.50;99.90;;;;;;5069377;28;20586;-88
2022/09/21 09:32:30;;;;;;;1.65;1.35;;;11.50;99.90;;;;;;5045620;28;20178;-88
2022/09/21 09:35:15;;;;;;;4.00;1.67;;;11.50;99.90;;;;;;5060763;28;20262;-91
2022/09/21 09:37:42;;;;;;;0.70;0.70;;;11.50;99.90;;;;;;5036993;28;20736;-89
2022/09/21 09:40:13;;;;;;;1.35;1.25;;;11.70;99.90;;;;;;5040019;28;20184;-87
2022/09/21 09:42:38;;;;;;;1.15;1.10;;;11.70;99.90;;;;;;5037883;28;20182;-89
2022/09/21 09:45:26;;;;;;;1.25;1.10;;;11.70;99.90;;;;;;5038416;28;20541;-87
2022/09/21 09:48:15;;;;;;;2.03;1.77;;;11.70;99.90;;;;;;5058021;28;20517;-89
2022/09/21 09:50:42;;;;;;;1.75;1.63;;;11.70;99.90;;;;;;5076997;28;20252;-90
2022/09/21 09:53:17;;;;;;;4.43;1.25;;;11.70;99.90;;;;;;5072830;28;20254;-88
2022/09/21 09:55:47;;;;;;;1.50;1.40;;;11.70;99.90;;;;;;5068050;28;20167;-91
2022/09/21 09:58:20;;;;;;;1.23;1.15;;;11.60;99.90;;;;;;5052406;28;20262;-90
2022/09/21 10:00:55;;;;;;;1.77;1.63;;;11.70;99.90;;;;;;5034334;28;20183;-90
2022/09/21 10:03:23;;;;;;;1.38;1.27;;;11.70;99.90;;;;;;5038183;28;20648;-91
2022/09/21 10:05:50;;;;;;;2.63;1.98;;;11.70;99.90;;;;;;5056040;28;20172;-90
2022/09/21 10:08:45;;;;;;;3.05;2.35;;;11.70;99.90;;;;;;5056580;28;20187;-88
2022/09/21 10:11:13;;;;;;;4.07;3.17;;;11.70;99.90;;;;;;5056079;28;20227;-87
2022/09/21 10:13:44;;;;;;;2.30;2.10;;;11.70;99.90;;;;;;5055886;28;20195;-89
2022/09/21 10:16:20;;;;;;;1.50;1.40;;;11.70;99.90;;;;;;5053887;28;20175;-88
2022/09/21 10:19:00;;;;;;;1.45;1.35;;;11.90;99.90;;;;;;5069530;28;20580;-90
2022/09/21 10:21:33;;;;;;;3.58;2.40;;;12.10;99.90;;;;;;5058266;28;20225;-90
2022/09/21 10:24:14;;;;;;;1.77;1.65;;;12.20;99.90;;;;;;5057329;28;20183;-91
2022/09/21 10:27:01;;;;;;;1.45;1.35;;;12.10;99.90;;;;;;5043575;28;20210;-90
2022/09/21 10:29:37;;;;;;;2.10;1.38;;;12.00;99.90;;;;;;5048402;28;20219;-94
2022/09/21 10:32:04;;;;;;;2.65;1.75;;;11.90;99.90;;;;;;5047699;28;20230;-93
2022/09/21 10:34:34;;;;;;;2.03;1.60;;;11.80;99.90;;;;;;5046796;28;20171;-89
2022/09/21 10:37:04;;;;;;;3.55;2.28;;;11.70;99.90;;;;;;5064085;28;20180;-89
2022/09/21 10:39:33;;;;;;;1.73;1.58;;;12.20;99.90;;;;;;5065762;28;20203;-92
2022/09/21 10:42:15;;;;;;;2.35;1.55;;;12.00;99.90;;;;;;5066594;28;20531;-92
2022/09/21 10:44:41;;;;;;;1.90;1.67;;;12.10;99.90;;;;;;5067408;28;20168;-86
2022/09/21 10:47:40;;;;;;;1.50;0.90;;;12.20;99.90;;;;;;5066390;28;20179;-92
2022/09/21 10:50:27;;;;;;;1.70;1.23;;;12.10;99.90;;;;;;5049122;28;20196;-92
2022/09/21 10:53:07;;;;;;;1.00;0.90;;;11.80;99.90;;;;;;5071177;28;20182;-92
2022/09/21 10:55:37;;;;;;;0.43;0.38;;;11.80;99.90;;;;;;5069563;28;20203;-91
2022/09/21 10:58:11;;;;;;;0.68;0.68;;;11.50;99.90;;;;;;5065309;28;20222;-91
2022/09/21 11:00:50;;;;;;;0.47;0.47;;;11.30;99.90;;;;;;5046353;28;20199;-88
2022/09/21 11:03:30;;;;;;;3.92;0.77;;;11.20;99.90;;;;;;5064244;28;20199;-91
2022/09/21 11:06:17;;;;;;;0.85;0.85;;;10.90;99.90;;;;;;5066220;28;20222;-91
2022/09/21 11:08:59;;;;;;;0.68;0.68;;;11.20;99.90;;;;;;5046661;28;20172;-92
2022/09/21 11:11:47;;;;;;;0.82;0.77;;;11.10;99.90;;;;;;5064906;28;20188;-92
2022/09/21 11:14:37;;;;;;;1.50;1.02;;;11.20;99.90;;;;;;5065561;28;20255;-92
2022/09/21 11:17:24;;;;;;;1.58;1.48;;;11.30;99.90;;;;;;5060718;28;20695;-90
2022/09/21 11:19:59;;;;;;;1.55;1.40;;;11.30;99.90;;;;;;5065881;28;20234;-92
2022/09/21 11:22:43;;;;;;;2.08;1.65;;;12.50;99.90;;;;;;5064100;28;20201;-92
2022/09/21 11:25:39;;;;;;;2.15;1.70;;;11.40;99.90;;;;;;5071738;28;20667;-92
2022/09/21 11:28:23;;;;;;;2.97;2.40;;;11.60;99.90;;;;;;5046407;28;20176;-92
2022/09/21 11:31:20;;;;;;;3.70;2.50;;;11.70;99.90;;;;;;5064982;28;20211;-91
2022/09/21 11:33:58;;;;;;;1.92;1.60;;;11.80;99.90;;;;;;5047737;28;20674;-89
2022/09/21 11:36:51;;;;;;;2.33;1.98;;;11.90;99.90;;;;;;5064819;28;20171;-90
2022/09/21 11:39:57;;;;;;;3.25;1.77;;;12.10;99.90;;;;;;5045325;28;20180;-92
2022/09/21 11:42:32;;;;;;;1.63;1.33;;;12.20;99.90;;;;;;5037883;28;20229;-91
2022/09/21 11:45:00;;;;;;;1.67;1.58;;;12.20;99.90;;;;;;5037718;28;20179;-95
2022/09/21 11:47:48;;;;;;;1.48;1.38;;;12.40;99.90;;;;;;5055591;28;20176;-89
2022/09/21 11:50:32;;;;;;;3.10;2.28;;;12.50;99.90;;;;;;5055117;28;20215;-93
2022/09/21 11:53:14;;;;;;;2.45;1.73;;;12.60;99.90;;;;;;5054741;28;20180;-92
2022/09/21 11:55:59;;;;;;;2.70;2.03;;;12.60;99.90;;;;;;5055169;28;20164;-92
2022/09/21 11:59:10;;;;;;;2.30;1.98;;;12.50;99.90;;;;;;5055146;28;20182;-92
2022/09/21 12:02:15;;;;;;;2.00;1.83;;;12.50;99.90;;;;;;5018286;28;20709;-92
2022/09/21 12:05:14;;;;;;;1.92;1.73;;;12.50;99.90;;;;;;5055368;28;20644;-92
2022/09/21 12:07:54;;;;;;;2.75;1.42;;;12.70;99.90;;;;;;5067516;28;20207;-90
2022/09/21 12:10:43;;;;;;;1.67;1.50;;;12.80;99.90;;;;;;5057713;28;20241;-91
2022/09/21 12:13:30;;;;;;;2.40;1.75;;;13.00;99.90;;;;;;5084843;28;20194;-92
2022/09/21 12:16:06;;;;;;;1.80;1.42;;;12.90;99.90;;;;;;5069459;28;20237;-92
2022/09/21 12:18:47;;;;;;;1.73;1.58;;;12.80;99.90;;;;;;5071432;28;20763;-89
2022/09/21 12:21:20;;;;;;;2.47;1.10;;;12.80;99.90;;;;;;5064530;28;20244;-90
2022/09/21 12:23:53;;;;;;;1.92;1.48;;;12.70;99.90;;;;;;5061097;28;20178;-91
2022/09/21 12:26:41;;;;;;;2.35;1.75;;;12.70;99.90;;;;;;5054719;28;20183;-92
2022/09/21 12:29:16;;;;;;;1.33;1.23;;;12.70;99.90;;;;;;5055713;28;20227;-90
2022/09/21 12:31:50;;;;;;;1.58;1.48;;;12.60;99.90;;;;;;5039206;28;20705;-90
2022/09/21 12:34:24;;;;;;;1.45;1.35;;;12.60;99.90;;;;;;5061384;28;20705;-91
2022/09/21 12:37:22;;;;;;;1.42;1.33;;;12.70;99.90;;;;;;5054585;28;20175;-90
2022/09/21 12:40:01;;;;;;;2.63;1.95;;;12.70;99.90;;;;;;5054902;28;20522;-90
2022/09/21 12:42:45;;;;;;;1.55;1.45;;;12.60;99.90;;;;;;5058973;28;20163;-91
2022/09/21 12:45:26;;;;;;;1.73;1.55;;;12.70;99.90;;;;;;5076491;28;20160;-90
2022/09/21 12:47:56;;;;;;;1.27;1.17;;;12.60;99.90;;;;;;5059420;28;20228;-92
2022/09/21 12:50:31;;;;;;;3.83;2.40;;;12.70;99.90;;;;;;5086665;28;20278;-90
2022/09/21 12:52:57;;;;;;;1.30;1.20;;;12.70;99.90;;;;;;5089114;28;20209;-87
2022/09/21 12:55:43;;;;;;;2.13;1.73;;;12.90;99.90;;;;;;5078894;28;20175;-90
2022/09/21 12:58:29;;;;;;;1.33;1.23;;;12.90;99.90;;;;;;5061807;28;20149;-92
2022/09/21 13:01:13;;;;;;;1.30;1.17;;;13.00;99.90;;;;;;5035420;28;20230;-91
2022/09/21 13:03:58;;;;;;;1.60;1.50;;;13.10;99.90;;;;;;5061327;28;20171;-91
2022/09/21 13:06:24;;;;;;;2.22;1.33;;;13.30;99.90;;;;;;5078553;28;20235;-90
2022/09/21 13:08:50;;;;;;;1.63;1.00;;;13.60;99.90;;;;;;5077509;28;20171;-87
2022/09/21 13:11:20;;;;;;;0.75;0.70;;;13.60;99.90;;;;;;5076607;28;20226;-87
2022/09/21 13:14:06;;;;;;;1.17;1.13;;;13.80;99.90;;;;;;5056448;28;20255;-89
2022/09/21 13:16:35;;;;;;;1.70;1.52;;;14.10;99.90;;;;;;5051864;28;20192;-91
2022/09/21 13:19:21;;;;;;;1.02;0.98;;;14.30;99.90;;;;;;5035324;28;20495;-91
2022/09/21 13:22:20;;;;;;;2.00;1.50;;;14.40;99.90;;;;;;5053686;28;20205;-94
2022/09/21 13:25:01;;;;;;;2.40;1.02;;;14.30;99.90;;;;;;5036546;28;20677;-91
2022/09/21 13:28:15;;;;;;;1.38;1.23;;;14.20;99.90;;;;;;5061427;28;20176;-95
2022/09/21 13:31:02;;;;;;;3.15;1.65;;;14.10;99.90;;;;;;5033657;28;20246;-88